sensor_id;sensor_type;location;lat;lon;timestamp;temperature;humidity
30520;DHT22;17300;50.374;8.006;2022-10-31T00:00:07;14.00;63.60
30520;DHT22;17300;50.374;8.006;2022-10-31T00:02:34;14.00;63.70
30520;DHT22;17300;50.374;8.006;2022-10-31T00:05:01;14.00;63.70
30520;DHT22;17300;50.374;8.006;2022-10-31T00:07:27;13.90;63.50
30520;DHT22;17300;50.374;8.006;2022-10-31T00:09:54;13.90;63.50
30520;DHT22;17300;50.374;8.006;2022-10-31T00:12:21;13.90;63.50
30520;DHT22;17300;50.374;8.006;2022-10-31T00:14:47;13.90;63.50
30520;DHT22;17300;50.374;8.006;2022-10-31T00:17:15;13.90;63.60
30520;DHT22;17300;50.374;8.006;2022-10-31T00:19:42;13.80;63.50
30520;DHT22;17300;50.374;8.006;2022-10-31T00:22:09;13.90;63.70
30520;DHT22;17300;50.374;8.006;2022-10-31T00:24:36;13.80;64.50
30520;DHT22;17300;50.374;8.006;2022-10-31T00:27:03;13.90;63.80
30520;DHT22;17300;50.374;8.006;2022-10-31T00:29:29;13.80;63.70
30520;DHT22;17300;50.374;8.006;2022-10-31T00:31:56;13.80;63.70
30520;DHT22;17300;50.374;8.006;2022-10-31T00:34:24;13.80;63.80
30520;DHT22;17300;50.374;8.006;2022-10-31T00:36:51;13.80;63.80
30520;DHT22;17300;50.374;8.006;2022-10-31T00:39:17;13.80;63.80
30520;DHT22;17300;50.374;8.006;2022-10-31T00:41:44;13.80;63.80
30520;DHT22;17300;50.374;8.006;2022-10-31T00:44:11;13.80;64.60
30520;DHT22;17300;50.374;8.006;2022-10-31T00:46:37;13.80;63.70
30520;DHT22;17300;50.374;8.006;2022-10-31T00:49:04;13.80;63.70
30520;DHT22;17300;50.374;8.006;2022-10-31T00:51:32;13.80;63.70
30520;DHT22;17300;50.374;8.006;2022-10-31T00:53:59;13.80;63.80
30520;DHT22;17300;50.374;8.006;2022-10-31T00:56:25;13.80;63.80
30520;DHT22;17300;50.374;8.006;2022-10-31T00:58:52;13.80;63.90
30520;DHT22;17300;50.374;8.006;2022-10-31T01:01:18;13.80;63.90
30520;DHT22;17300;50.374;8.006;2022-10-31T01:03:45;13.80;63.90
30520;DHT22;17300;50.374;8.006;2022-10-31T01:06:13;13.80;63.80
30520;DHT22;17300;50.374;8.006;2022-10-31T01:08:42;13.80;63.70
30520;DHT22;17300;50.374;8.006;2022-10-31T01:11:11;13.80;63.60
30520;DHT22;17300;50.374;8.006;2022-10-31T01:13:39;13.80;63.50
30520;DHT22;17300;50.374;8.006;2022-10-31T01:16:08;13.80;63.50
30520;DHT22;17300;50.374;8.006;2022-10-31T01:18:36;13.70;63.30
30520;DHT22;17300;50.374;8.006;2022-10-31T01:21:04;13.70;63.30
30520;DHT22;17300;50.374;8.006;2022-10-31T01:23:32;13.80;63.50
30520;DHT22;17300;50.374;8.006;2022-10-31T01:26:02;13.70;63.40
30520;DHT22;17300;50.374;8.006;2022-10-31T01:28:29;13.70;63.40
30520;DHT22;17300;50.374;8.006;2022-10-31T01:31:00;13.70;63.40
30520;DHT22;17300;50.374;8.006;2022-10-31T01:33:27;13.70;63.60
30520;DHT22;17300;50.374;8.006;2022-10-31T01:35:53;13.70;63.60
30520;DHT22;17300;50.374;8.006;2022-10-31T01:38:20;13.70;63.60
30520;DHT22;17300;50.374;8.006;2022-10-31T01:40:47;13.70;64.50
30520;DHT22;17300;50.374;8.006;2022-10-31T01:43:15;13.70;63.60
30520;DHT22;17300;50.374;8.006;2022-10-31T01:45:44;13.70;63.70
30520;DHT22;17300;50.374;8.006;2022-10-31T01:48:15;13.70;64.50
30520;DHT22;17300;50.374;8.006;2022-10-31T01:50:45;13.70;63.70
30520;DHT22;17300;50.374;8.006;2022-10-31T01:53:13;13.70;63.70
30520;DHT22;17300;50.374;8.006;2022-10-31T01:55:42;13.70;63.70
30520;DHT22;17300;50.374;8.006;2022-10-31T01:58:13;13.70;63.80
30520;DHT22;17300;50.374;8.006;2022-10-31T02:00:43;13.70;63.80
30520;DHT22;17300;50.374;8.006;2022-10-31T02:03:11;13.70;63.90
30520;DHT22;17300;50.374;8.006;2022-10-31T02:05:38;13.70;63.80
30520;DHT22;17300;50.374;8.006;2022-10-31T02:08:10;13.70;63.80
30520;DHT22;17300;50.374;8.006;2022-10-31T02:10:40;13.80;63.90
30520;DHT22;17300;50.374;8.006;2022-10-31T02:13:09;13.80;63.80
30520;DHT22;17300;50.374;8.006;2022-10-31T02:15:37;13.70;63.70
30520;DHT22;17300;50.374;8.006;2022-10-31T02:18:06;13.80;63.80
30520;DHT22;17300;50.374;8.006;2022-10-31T02:20:40;13.80;63.80
30520;DHT22;17300;50.374;8.006;2022-10-31T02:23:26;13.80;63.90
30520;DHT22;17300;50.374;8.006;2022-10-31T02:26:11;13.80;63.90
30520;DHT22;17300;50.374;8.006;2022-10-31T02:29:06;13.80;63.80
30520;DHT22;17300;50.374;8.006;2022-10-31T02:31:46;13.80;64.00
30520;DHT22;17300;50.374;8.006;2022-10-31T02:34:20;13.80;63.80
30520;DHT22;17300;50.374;8.006;2022-10-31T02:36:53;13.80;63.70
30520;DHT22;17300;50.374;8.006;2022-10-31T02:39:27;13.80;64.60
30520;DHT22;17300;50.374;8.006;2022-10-31T02:42:03;13.80;63.80
30520;DHT22;17300;50.374;8.006;2022-10-31T02:44:36;13.80;64.00
30520;DHT22;17300;50.374;8.006;2022-10-31T02:47:06;13.80;64.00
30520;DHT22;17300;50.374;8.006;2022-10-31T02:49:39;13.80;64.00
30520;DHT22;17300;50.374;8.006;2022-10-31T02:52:16;13.80;64.10
30520;DHT22;17300;50.374;8.006;2022-10-31T02:54:45;13.80;64.20
30520;DHT22;17300;50.374;8.006;2022-10-31T02:57:13;13.80;64.10
30520;DHT22;17300;50.374;8.006;2022-10-31T02:59:45;13.80;64.00
30520;DHT22;17300;50.374;8.006;2022-10-31T03:02:38;13.90;64.20
30520;DHT22;17300;50.374;8.006;2022-10-31T03:05:28;13.90;64.40
30520;DHT22;17300;50.374;8.006;2022-10-31T03:08:03;13.90;64.20
30520;DHT22;17300;50.374;8.006;2022-10-31T03:10:37;13.90;64.00
30520;DHT22;17300;50.374;8.006;2022-10-31T03:13:10;13.90;64.00
30520;DHT22;17300;50.374;8.006;2022-10-31T03:15:42;13.90;63.90
30520;DHT22;17300;50.374;8.006;2022-10-31T03:18:14;13.90;63.90
30520;DHT22;17300;50.374;8.006;2022-10-31T03:20:47;13.90;64.00
30520;DHT22;17300;50.374;8.006;2022-10-31T03:23:17;13.90;64.00
30520;DHT22;17300;50.374;8.006;2022-10-31T03:25:46;14.00;64.10
30520;DHT22;17300;50.374;8.006;2022-10-31T03:28:17;14.00;64.20
30520;DHT22;17300;50.374;8.006;2022-10-31T03:30:46;14.00;64.20
30520;DHT22;17300;50.374;8.006;2022-10-31T03:33:19;14.00;64.20
30520;DHT22;17300;50.374;8.006;2022-10-31T03:35:51;14.00;64.20
30520;DHT22;17300;50.374;8.006;2022-10-31T03:38:20;14.00;64.20
30520;DHT22;17300;50.374;8.006;2022-10-31T03:40:48;14.10;64.20
30520;DHT22;17300;50.374;8.006;2022-10-31T03:43:24;14.10;64.20
30520;DHT22;17300;50.374;8.006;2022-10-31T03:45:51;14.10;64.30
30520;DHT22;17300;50.374;8.006;2022-10-31T03:48:20;14.10;64.30
30520;DHT22;17300;50.374;8.006;2022-10-31T03:50:52;14.10;64.30
30520;DHT22;17300;50.374;8.006;2022-10-31T03:53:26;14.10;64.30
30520;DHT22;17300;50.374;8.006;2022-10-31T03:55:59;14.10;64.30
30520;DHT22;17300;50.374;8.006;2022-10-31T03:58:30;14.10;64.30
30520;DHT22;17300;50.374;8.006;2022-10-31T04:01:01;14.10;64.20
30520;DHT22;17300;50.374;8.006;2022-10-31T04:03:31;14.20;64.30
30520;DHT22;17300;50.374;8.006;2022-10-31T04:06:04;14.10;64.20
30520;DHT22;17300;50.374;8.006;2022-10-31T04:08:33;14.20;64.30
30520;DHT22;17300;50.374;8.006;2022-10-31T04:11:04;14.20;64.30
30520;DHT22;17300;50.374;8.006;2022-10-31T04:13:35;14.10;64.10
30520;DHT22;17300;50.374;8.006;2022-10-31T04:16:04;14.20;64.30
30520;DHT22;17300;50.374;8.006;2022-10-31T04:18:32;14.20;64.30
30520;DHT22;17300;50.374;8.006;2022-10-31T04:21:01;14.20;64.30
30520;DHT22;17300;50.374;8.006;2022-10-31T04:23:29;14.20;64.30
30520;DHT22;17300;50.374;8.006;2022-10-31T04:25:55;14.20;64.30
30520;DHT22;17300;50.374;8.006;2022-10-31T04:28:22;14.20;64.40
30520;DHT22;17300;50.374;8.006;2022-10-31T04:30:49;14.20;64.40
30520;DHT22;17300;50.374;8.006;2022-10-31T04:33:16;14.20;64.40
30520;DHT22;17300;50.374;8.006;2022-10-31T04:35:45;14.30;64.50
30520;DHT22;17300;50.374;8.006;2022-10-31T04:38:12;14.30;64.50
30520;DHT22;17300;50.374;8.006;2022-10-31T04:40:39;14.30;64.50
30520;DHT22;17300;50.374;8.006;2022-10-31T04:43:05;14.30;64.50
30520;DHT22;17300;50.374;8.006;2022-10-31T04:45:32;14.30;64.40
30520;DHT22;17300;50.374;8.006;2022-10-31T04:47:59;14.30;64.40
30520;DHT22;17300;50.374;8.006;2022-10-31T04:50:25;14.40;64.40
30520;DHT22;17300;50.374;8.006;2022-10-31T04:52:53;14.40;64.40
30520;DHT22;17300;50.374;8.006;2022-10-31T04:55:20;14.40;64.40
30520;DHT22;17300;50.374;8.006;2022-10-31T04:57:48;14.40;64.40
30520;DHT22;17300;50.374;8.006;2022-10-31T05:00:17;14.40;64.40
30520;DHT22;17300;50.374;8.006;2022-10-31T05:02:44;14.40;64.30
30520;DHT22;17300;50.374;8.006;2022-10-31T05:05:11;14.40;64.20
30520;DHT22;17300;50.374;8.006;2022-10-31T05:07:39;14.50;64.20
30520;DHT22;17300;50.374;8.006;2022-10-31T05:10:09;14.50;64.20
30520;DHT22;17300;50.374;8.006;2022-10-31T05:12:36;14.50;64.20
30520;DHT22;17300;50.374;8.006;2022-10-31T05:15:04;14.40;64.10
30520;DHT22;17300;50.374;8.006;2022-10-31T05:17:31;14.40;64.10
30520;DHT22;17300;50.374;8.006;2022-10-31T05:19:58;14.40;64.10
30520;DHT22;17300;50.374;8.006;2022-10-31T05:22:25;14.40;64.20
30520;DHT22;17300;50.374;8.006;2022-10-31T05:24:52;14.40;64.20
30520;DHT22;17300;50.374;8.006;2022-10-31T05:27:20;14.40;64.20
30520;DHT22;17300;50.374;8.006;2022-10-31T05:29:47;14.40;64.30
30520;DHT22;17300;50.374;8.006;2022-10-31T05:32:14;14.40;64.20
30520;DHT22;17300;50.374;8.006;2022-10-31T05:34:40;14.40;64.10
30520;DHT22;17300;50.374;8.006;2022-10-31T05:37:07;14.40;64.10
30520;DHT22;17300;50.374;8.006;2022-10-31T05:39:34;14.40;64.10
30520;DHT22;17300;50.374;8.006;2022-10-31T05:42:00;14.30;64.00
30520;DHT22;17300;50.374;8.006;2022-10-31T05:44:29;14.40;64.20
30520;DHT22;17300;50.374;8.006;2022-10-31T05:46:55;14.40;64.30
30520;DHT22;17300;50.374;8.006;2022-10-31T05:49:22;14.40;64.30
30520;DHT22;17300;50.374;8.006;2022-10-31T05:51:49;14.40;64.40
30520;DHT22;17300;50.374;8.006;2022-10-31T05:54:15;14.40;64.50
30520;DHT22;17300;50.374;8.006;2022-10-31T05:56:42;14.40;64.50
30520;DHT22;17300;50.374;8.006;2022-10-31T05:59:09;14.30;64.40
30520;DHT22;17300;50.374;8.006;2022-10-31T06:01:37;14.30;64.40
30520;DHT22;17300;50.374;8.006;2022-10-31T06:04:04;14.30;64.40
30520;DHT22;17300;50.374;8.006;2022-10-31T06:06:31;14.40;64.60
30520;DHT22;17300;50.374;8.006;2022-10-31T06:08:57;14.30;64.50
30520;DHT22;17300;50.374;8.006;2022-10-31T06:11:24;14.40;64.50
30520;DHT22;17300;50.374;8.006;2022-10-31T06:13:51;14.30;64.40
30520;DHT22;17300;50.374;8.006;2022-10-31T06:16:17;14.40;64.50
30520;DHT22;17300;50.374;8.006;2022-10-31T06:18:46;14.40;64.50
30520;DHT22;17300;50.374;8.006;2022-10-31T06:21:13;14.30;64.50
30520;DHT22;17300;50.374;8.006;2022-10-31T06:23:40;14.30;64.50
30520;DHT22;17300;50.374;8.006;2022-10-31T06:26:06;14.30;64.50
30520;DHT22;17300;50.374;8.006;2022-10-31T06:28:33;14.30;64.50
30520;DHT22;17300;50.374;8.006;2022-10-31T06:31:00;14.30;64.50
30520;DHT22;17300;50.374;8.006;2022-10-31T06:33:26;14.30;64.60
30520;DHT22;17300;50.374;8.006;2022-10-31T06:35:55;14.30;64.60
30520;DHT22;17300;50.374;8.006;2022-10-31T06:38:21;14.30;64.50
30520;DHT22;17300;50.374;8.006;2022-10-31T06:40:48;14.30;64.40
30520;DHT22;17300;50.374;8.006;2022-10-31T06:43:15;14.30;64.40
30520;DHT22;17300;50.374;8.006;2022-10-31T06:45:42;14.30;64.40
30520;DHT22;17300;50.374;8.006;2022-10-31T06:48:08;14.30;65.40
30520;DHT22;17300;50.374;8.006;2022-10-31T06:50:35;14.30;64.50
30520;DHT22;17300;50.374;8.006;2022-10-31T06:53:03;14.30;64.60
30520;DHT22;17300;50.374;8.006;2022-10-31T06:55:30;14.30;64.70
30520;DHT22;17300;50.374;8.006;2022-10-31T06:57:58;14.30;65.50
30520;DHT22;17300;50.374;8.006;2022-10-31T07:00:28;14.40;64.70
30520;DHT22;17300;50.374;8.006;2022-10-31T07:03:02;14.40;64.70
30520;DHT22;17300;50.374;8.006;2022-10-31T07:05:30;14.30;64.60
30520;DHT22;17300;50.374;8.006;2022-10-31T07:07:58;14.40;64.70
30520;DHT22;17300;50.374;8.006;2022-10-31T07:10:28;14.40;64.80
30520;DHT22;17300;50.374;8.006;2022-10-31T07:12:55;14.40;64.90
30520;DHT22;17300;50.374;8.006;2022-10-31T07:15:23;14.40;64.90
30520;DHT22;17300;50.374;8.006;2022-10-31T07:17:49;14.40;65.00
30520;DHT22;17300;50.374;8.006;2022-10-31T07:20:17;14.50;65.20
30520;DHT22;17300;50.374;8.006;2022-10-31T07:22:44;14.50;65.20
30520;DHT22;17300;50.374;8.006;2022-10-31T07:28:20;14.60;65.30
30520;DHT22;17300;50.374;8.006;2022-10-31T07:34:19;14.70;65.20
30520;DHT22;17300;50.374;8.006;2022-10-31T07:37:17;14.70;65.20
30520;DHT22;17300;50.374;8.006;2022-10-31T07:45:04;14.90;65.30
30520;DHT22;17300;50.374;8.006;2022-10-31T07:47:38;14.90;64.80
30520;DHT22;17300;50.374;8.006;2022-10-31T07:50:05;15.00;64.80
30520;DHT22;17300;50.374;8.006;2022-10-31T07:52:32;15.00;64.90
30520;DHT22;17300;50.374;8.006;2022-10-31T07:54:58;15.10;65.10
30520;DHT22;17300;50.374;8.006;2022-10-31T07:57:25;15.10;65.10
30520;DHT22;17300;50.374;8.006;2022-10-31T07:59:52;15.20;65.30
30520;DHT22;17300;50.374;8.006;2022-10-31T08:02:20;15.20;65.20
30520;DHT22;17300;50.374;8.006;2022-10-31T08:04:47;15.30;65.10
30520;DHT22;17300;50.374;8.006;2022-10-31T08:07:13;15.40;65.10
30520;DHT22;17300;50.374;8.006;2022-10-31T08:09:40;15.40;65.00
30520;DHT22;17300;50.374;8.006;2022-10-31T08:12:08;15.50;65.10
30520;DHT22;17300;50.374;8.006;2022-10-31T08:14:51;15.50;65.00
30520;DHT22;17300;50.374;8.006;2022-10-31T08:17:17;15.60;65.70
30520;DHT22;17300;50.374;8.006;2022-10-31T08:19:45;15.70;65.10
30520;DHT22;17300;50.374;8.006;2022-10-31T08:22:12;15.70;64.90
30520;DHT22;17300;50.374;8.006;2022-10-31T08:24:41;15.80;64.80
30520;DHT22;17300;50.374;8.006;2022-10-31T08:27:07;15.90;64.90
30520;DHT22;17300;50.374;8.006;2022-10-31T08:29:34;15.90;64.80
30520;DHT22;17300;50.374;8.006;2022-10-31T08:32:01;16.00;64.80
30520;DHT22;17300;50.374;8.006;2022-10-31T08:34:27;16.00;64.70
30520;DHT22;17300;50.374;8.006;2022-10-31T08:36:55;16.10;64.60
30520;DHT22;17300;50.374;8.006;2022-10-31T08:39:22;16.10;64.50
30520;DHT22;17300;50.374;8.006;2022-10-31T08:41:48;16.20;64.60
30520;DHT22;17300;50.374;8.006;2022-10-31T08:44:16;16.30;64.70
30520;DHT22;17300;50.374;8.006;2022-10-31T08:46:43;16.30;64.60
30520;DHT22;17300;50.374;8.006;2022-10-31T08:49:10;16.40;64.60
30520;DHT22;17300;50.374;8.006;2022-10-31T08:51:36;16.40;64.50
30520;DHT22;17300;50.374;8.006;2022-10-31T08:54:05;16.50;64.40
30520;DHT22;17300;50.374;8.006;2022-10-31T08:56:31;16.50;64.30
30520;DHT22;17300;50.374;8.006;2022-10-31T08:58:58;16.60;64.50
30520;DHT22;17300;50.374;8.006;2022-10-31T09:01:25;16.70;64.60
30520;DHT22;17300;50.374;8.006;2022-10-31T09:03:51;16.80;64.80
30520;DHT22;17300;50.374;8.006;2022-10-31T09:06:18;16.90;65.00
30520;DHT22;17300;50.374;8.006;2022-10-31T09:08:45;17.00;65.10
30520;DHT22;17300;50.374;8.006;2022-10-31T09:11:13;17.10;65.00
30520;DHT22;17300;50.374;8.006;2022-10-31T09:13:43;17.30;65.10
30520;DHT22;17300;50.374;8.006;2022-10-31T09:16:10;17.50;65.10
30520;DHT22;17300;50.374;8.006;2022-10-31T09:18:37;17.60;64.60
30520;DHT22;17300;50.374;8.006;2022-10-31T09:21:04;17.80;64.80
30520;DHT22;17300;50.374;8.006;2022-10-31T09:23:30;17.90;64.80
30520;DHT22;17300;50.374;8.006;2022-10-31T09:25:59;18.10;64.80
30520;DHT22;17300;50.374;8.006;2022-10-31T09:28:27;18.20;64.70
30520;DHT22;17300;50.374;8.006;2022-10-31T09:30:54;18.50;65.30
30520;DHT22;17300;50.374;8.006;2022-10-31T09:33:21;18.70;65.50
30520;DHT22;17300;50.374;8.006;2022-10-31T09:35:48;19.00;66.20
30520;DHT22;17300;50.374;8.006;2022-10-31T09:38:18;19.40;66.50
30520;DHT22;17300;50.374;8.006;2022-10-31T09:40:47;19.80;66.70
30520;DHT22;17300;50.374;8.006;2022-10-31T09:43:22;20.30;66.30
30520;DHT22;17300;50.374;8.006;2022-10-31T09:45:58;20.70;65.10
30520;DHT22;17300;50.374;8.006;2022-10-31T09:48:54;21.10;64.60
30520;DHT22;17300;50.374;8.006;2022-10-31T09:51:29;21.60;63.00
30520;DHT22;17300;50.374;8.006;2022-10-31T09:54:00;21.90;63.70
30520;DHT22;17300;50.374;8.006;2022-10-31T09:56:29;22.30;63.10
30520;DHT22;17300;50.374;8.006;2022-10-31T09:58:58;22.60;62.50
30520;DHT22;17300;50.374;8.006;2022-10-31T10:01:38;22.80;61.50
30520;DHT22;17300;50.374;8.006;2022-10-31T10:04:19;23.00;60.00
30520;DHT22;17300;50.374;8.006;2022-10-31T10:06:49;23.10;59.20
30520;DHT22;17300;50.374;8.006;2022-10-31T10:09:18;23.10;59.30
30520;DHT22;17300;50.374;8.006;2022-10-31T10:11:53;23.20;58.90
30520;DHT22;17300;50.374;8.006;2022-10-31T10:14:33;23.20;58.10
30520;DHT22;17300;50.374;8.006;2022-10-31T10:17:12;23.20;57.60
30520;DHT22;17300;50.374;8.006;2022-10-31T10:19:56;23.10;57.10
30520;DHT22;17300;50.374;8.006;2022-10-31T10:22:37;23.00;56.80
30520;DHT22;17300;50.374;8.006;2022-10-31T10:25:15;22.90;57.10
30520;DHT22;17300;50.374;8.006;2022-10-31T10:27:54;22.80;56.80
30520;DHT22;17300;50.374;8.006;2022-10-31T10:30:28;22.70;56.80
30520;DHT22;17300;50.374;8.006;2022-10-31T10:33:02;22.50;56.90
30520;DHT22;17300;50.374;8.006;2022-10-31T10:35:33;22.50;57.00
30520;DHT22;17300;50.374;8.006;2022-10-31T10:38:08;22.30;57.20
30520;DHT22;17300;50.374;8.006;2022-10-31T10:40:37;22.20;57.20
30520;DHT22;17300;50.374;8.006;2022-10-31T10:43:20;22.10;57.60
30520;DHT22;17300;50.374;8.006;2022-10-31T10:45:51;22.00;57.00
30520;DHT22;17300;50.374;8.006;2022-10-31T10:48:42;22.00;57.50
30520;DHT22;17300;50.374;8.006;2022-10-31T10:51:19;21.90;57.30
30520;DHT22;17300;50.374;8.006;2022-10-31T10:53:54;21.90;57.40
30520;DHT22;17300;50.374;8.006;2022-10-31T10:59:20;21.80;57.70
30520;DHT22;17300;50.374;8.006;2022-10-31T11:01:49;21.80;58.00
30520;DHT22;17300;50.374;8.006;2022-10-31T11:04:30;21.90;58.20
30520;DHT22;17300;50.374;8.006;2022-10-31T11:07:01;21.90;57.70
30520;DHT22;17300;50.374;8.006;2022-10-31T11:09:28;21.90;58.10
30520;DHT22;17300;50.374;8.006;2022-10-31T11:11:56;22.00;58.50
30520;DHT22;17300;50.374;8.006;2022-10-31T11:14:23;22.00;58.40
30520;DHT22;17300;50.374;8.006;2022-10-31T11:16:53;22.10;58.40
30520;DHT22;17300;50.374;8.006;2022-10-31T11:19:22;22.20;58.30
30520;DHT22;17300;50.374;8.006;2022-10-31T11:21:52;22.30;58.10
30520;DHT22;17300;50.374;8.006;2022-10-31T11:24:22;22.40;58.10
30520;DHT22;17300;50.374;8.006;2022-10-31T11:26:51;22.40;57.80
30520;DHT22;17300;50.374;8.006;2022-10-31T11:29:21;22.50;57.70
30520;DHT22;17300;50.374;8.006;2022-10-31T11:31:51;22.50;57.30
30520;DHT22;17300;50.374;8.006;2022-10-31T11:34:28;22.50;57.60
30520;DHT22;17300;50.374;8.006;2022-10-31T11:37:01;22.50;56.60
30520;DHT22;17300;50.374;8.006;2022-10-31T11:39:29;22.40;56.70
30520;DHT22;17300;50.374;8.006;2022-10-31T11:42:00;22.40;56.90
30520;DHT22;17300;50.374;8.006;2022-10-31T11:44:30;22.30;56.60
30520;DHT22;17300;50.374;8.006;2022-10-31T11:46:59;22.20;56.70
30520;DHT22;17300;50.374;8.006;2022-10-31T11:49:30;22.10;56.80
30520;DHT22;17300;50.374;8.006;2022-10-31T11:52:04;22.00;56.90
30520;DHT22;17300;50.374;8.006;2022-10-31T11:54:34;21.90;57.00
30520;DHT22;17300;50.374;8.006;2022-10-31T11:57:03;21.90;57.10
30520;DHT22;17300;50.374;8.006;2022-10-31T11:59:31;21.90;57.30
30520;DHT22;17300;50.374;8.006;2022-10-31T12:01:59;21.80;57.40
30520;DHT22;17300;50.374;8.006;2022-10-31T12:04:33;21.70;57.40
30520;DHT22;17300;50.374;8.006;2022-10-31T12:07:02;21.70;57.40
30520;DHT22;17300;50.374;8.006;2022-10-31T12:09:32;21.70;57.60
30520;DHT22;17300;50.374;8.006;2022-10-31T12:12:11;21.70;57.60
30520;DHT22;17300;50.374;8.006;2022-10-31T12:14:53;21.60;57.50
30520;DHT22;17300;50.374;8.006;2022-10-31T12:17:25;21.60;57.50
30520;DHT22;17300;50.374;8.006;2022-10-31T12:20:02;21.60;57.50
30520;DHT22;17300;50.374;8.006;2022-10-31T12:22:41;21.70;57.60
30520;DHT22;17300;50.374;8.006;2022-10-31T12:25:18;21.60;58.00
30520;DHT22;17300;50.374;8.006;2022-10-31T12:28:02;21.70;58.20
30520;DHT22;17300;50.374;8.006;2022-10-31T12:30:39;21.70;58.10
30520;DHT22;17300;50.374;8.006;2022-10-31T12:33:28;21.70;58.10
30520;DHT22;17300;50.374;8.006;2022-10-31T12:36:10;21.70;58.00
30520;DHT22;17300;50.374;8.006;2022-10-31T12:39:02;21.80;58.20
30520;DHT22;17300;50.374;8.006;2022-10-31T12:41:44;21.80;58.10
30520;DHT22;17300;50.374;8.006;2022-10-31T12:44:22;21.90;58.20
30520;DHT22;17300;50.374;8.006;2022-10-31T12:47:09;21.90;58.30
30520;DHT22;17300;50.374;8.006;2022-10-31T12:49:52;21.90;58.00
30520;DHT22;17300;50.374;8.006;2022-10-31T12:52:39;22.00;58.20
30520;DHT22;17300;50.374;8.006;2022-10-31T12:55:21;22.00;58.40
30520;DHT22;17300;50.374;8.006;2022-10-31T12:57:56;22.00;58.30
30520;DHT22;17300;50.374;8.006;2022-10-31T13:00:26;22.10;58.50
30520;DHT22;17300;50.374;8.006;2022-10-31T13:02:56;22.10;58.30
30520;DHT22;17300;50.374;8.006;2022-10-31T13:05:29;22.20;58.20
30520;DHT22;17300;50.374;8.006;2022-10-31T13:07:58;22.20;58.00
30520;DHT22;17300;50.374;8.006;2022-10-31T13:10:32;22.30;58.10
30520;DHT22;17300;50.374;8.006;2022-10-31T13:13:06;22.30;58.10
30520;DHT22;17300;50.374;8.006;2022-10-31T13:15:47;22.30;58.10
30520;DHT22;17300;50.374;8.006;2022-10-31T13:18:25;22.30;58.10
30520;DHT22;17300;50.374;8.006;2022-10-31T13:20:54;22.30;58.10
30520;DHT22;17300;50.374;8.006;2022-10-31T13:23:26;22.30;58.00
30520;DHT22;17300;50.374;8.006;2022-10-31T13:25:58;22.30;57.90
30520;DHT22;17300;50.374;8.006;2022-10-31T13:28:31;22.20;57.70
30520;DHT22;17300;50.374;8.006;2022-10-31T13:31:00;22.10;57.60
30520;DHT22;17300;50.374;8.006;2022-10-31T13:33:30;22.10;57.70
30520;DHT22;17300;50.374;8.006;2022-10-31T13:36:08;22.00;57.80
30520;DHT22;17300;50.374;8.006;2022-10-31T13:38:41;22.00;57.80
30520;DHT22;17300;50.374;8.006;2022-10-31T13:41:21;21.90;57.70
30520;DHT22;17300;50.374;8.006;2022-10-31T13:44:02;21.90;57.90
30520;DHT22;17300;50.374;8.006;2022-10-31T13:46:37;21.80;57.70
30520;DHT22;17300;50.374;8.006;2022-10-31T13:49:18;21.80;57.70
30520;DHT22;17300;50.374;8.006;2022-10-31T13:51:49;21.80;57.90
30520;DHT22;17300;50.374;8.006;2022-10-31T13:54:22;21.80;58.00
30520;DHT22;17300;50.374;8.006;2022-10-31T13:56:51;21.70;58.10
30520;DHT22;17300;50.374;8.006;2022-10-31T13:59:21;21.60;58.10
30520;DHT22;17300;50.374;8.006;2022-10-31T14:01:50;21.60;58.00
30520;DHT22;17300;50.374;8.006;2022-10-31T14:04:20;21.60;58.10
30520;DHT22;17300;50.374;8.006;2022-10-31T14:06:56;21.50;57.90
30520;DHT22;17300;50.374;8.006;2022-10-31T14:09:30;21.50;57.90
30520;DHT22;17300;50.374;8.006;2022-10-31T14:12:02;21.50;58.00
30520;DHT22;17300;50.374;8.006;2022-10-31T14:14:34;21.40;58.00
30520;DHT22;17300;50.374;8.006;2022-10-31T14:17:02;21.40;58.00
30520;DHT22;17300;50.374;8.006;2022-10-31T14:19:29;21.30;58.00
30520;DHT22;17300;50.374;8.006;2022-10-31T14:21:56;21.30;58.10
30520;DHT22;17300;50.374;8.006;2022-10-31T14:24:35;21.30;58.10
30520;DHT22;17300;50.374;8.006;2022-10-31T14:27:35;21.20;58.10
30520;DHT22;17300;50.374;8.006;2022-10-31T14:30:18;21.10;58.10
30520;DHT22;17300;50.374;8.006;2022-10-31T14:32:53;21.10;58.80
30520;DHT22;17300;50.374;8.006;2022-10-31T14:35:24;21.10;58.30
30520;DHT22;17300;50.374;8.006;2022-10-31T14:38:18;21.00;58.40
30520;DHT22;17300;50.374;8.006;2022-10-31T14:40:58;21.00;58.70
30520;DHT22;17300;50.374;8.006;2022-10-31T14:43:55;21.00;58.80
30520;DHT22;17300;50.374;8.006;2022-10-31T14:46:35;20.90;58.70
30520;DHT22;17300;50.374;8.006;2022-10-31T14:49:17;20.90;58.80
30520;DHT22;17300;50.374;8.006;2022-10-31T14:51:47;20.80;58.80
30520;DHT22;17300;50.374;8.006;2022-10-31T14:54:17;20.90;58.90
30520;DHT22;17300;50.374;8.006;2022-10-31T14:56:48;20.80;58.90
30520;DHT22;17300;50.374;8.006;2022-10-31T14:59:20;20.80;59.00
30520;DHT22;17300;50.374;8.006;2022-10-31T15:01:56;20.80;59.20
30520;DHT22;17300;50.374;8.006;2022-10-31T15:04:25;20.80;59.30
30520;DHT22;17300;50.374;8.006;2022-10-31T15:06:58;20.80;60.00
30520;DHT22;17300;50.374;8.006;2022-10-31T15:09:28;20.80;59.30
30520;DHT22;17300;50.374;8.006;2022-10-31T15:11:55;20.80;59.20
30520;DHT22;17300;50.374;8.006;2022-10-31T15:14:26;20.80;59.20
30520;DHT22;17300;50.374;8.006;2022-10-31T15:16:55;20.70;59.30
30520;DHT22;17300;50.374;8.006;2022-10-31T15:19:25;20.70;59.30
30520;DHT22;17300;50.374;8.006;2022-10-31T15:21:54;20.60;59.30
30520;DHT22;17300;50.374;8.006;2022-10-31T15:24:24;20.50;59.30
30520;DHT22;17300;50.374;8.006;2022-10-31T15:26:53;20.40;59.20
30520;DHT22;17300;50.374;8.006;2022-10-31T15:29:21;20.40;59.30
30520;DHT22;17300;50.374;8.006;2022-10-31T15:31:54;20.30;59.40
30520;DHT22;17300;50.374;8.006;2022-10-31T15:34:24;20.20;59.60
30520;DHT22;17300;50.374;8.006;2022-10-31T15:36:52;20.10;59.40
30520;DHT22;17300;50.374;8.006;2022-10-31T15:39:19;20.00;59.40
30520;DHT22;17300;50.374;8.006;2022-10-31T15:41:49;19.90;59.50
30520;DHT22;17300;50.374;8.006;2022-10-31T15:44:21;19.80;59.60
30520;DHT22;17300;50.374;8.006;2022-10-31T15:46:54;19.70;59.70
30520;DHT22;17300;50.374;8.006;2022-10-31T15:49:29;19.60;60.00
30520;DHT22;17300;50.374;8.006;2022-10-31T15:51:57;19.50;60.20
30520;DHT22;17300;50.374;8.006;2022-10-31T15:54:28;19.40;60.00
30520;DHT22;17300;50.374;8.006;2022-10-31T15:56:56;19.30;60.10
30520;DHT22;17300;50.374;8.006;2022-10-31T15:59:25;19.20;60.20
30520;DHT22;17300;50.374;8.006;2022-10-31T16:02:00;19.20;60.30
30520;DHT22;17300;50.374;8.006;2022-10-31T16:04:28;19.00;60.70
30520;DHT22;17300;50.374;8.006;2022-10-31T16:07:03;19.00;60.50